createdAt,value
2023-08-17T00:04:59.265Z,21.13
2023-08-17T00:10:02.379Z,20.99
2023-08-17T00:15:06.157Z,21.53
2023-08-17T00:20:11.692Z,21.00
2023-08-17T00:25:14.836Z,21.13
2023-08-17T00:30:17.638Z,20.91
2023-08-17T00:35:22.050Z,21.21
2023-08-17T00:40:25.829Z,20.99
2023-08-17T00:45:30.635Z,20.88
2023-08-17T00:50:34.875Z,20.66
2023-08-17T00:55:38.438Z,20.54
2023-08-17T01:00:42.317Z,20.87
2023-08-17T01:05:47.389Z,20.77
2023-08-17T01:10:59.383Z,20.31
2023-08-17T01:16:07.612Z,20.79
2023-08-17T01:21:15.863Z,20.79
2023-08-17T01:26:19.988Z,20.68
2023-08-17T01:31:32.644Z,20.86
2023-08-17T01:36:39.760Z,20.49
2023-08-17T01:41:45.430Z,20.56
2023-08-17T01:46:48.471Z,20.69
2023-08-17T01:51:51.335Z,20.74
2023-08-17T01:56:55.436Z,20.87
2023-08-17T02:01:58.326Z,21.15
2023-08-17T02:07:01.850Z,20.49
2023-08-17T02:12:07.508Z,20.15
2023-08-17T02:17:10.338Z,20.15
2023-08-17T02:22:13.241Z,20.25
2023-08-17T02:27:17.364Z,20.28
2023-08-17T02:32:20.204Z,20.17
2023-08-17T02:37:24.206Z,20.05
2023-08-17T02:42:28.608Z,20.02
2023-08-17T02:47:31.465Z,19.96
2023-08-17T02:52:34.373Z,20.02
2023-08-17T02:57:38.484Z,20.14
2023-08-17T03:02:41.364Z,20.24
2023-08-17T03:07:44.170Z,19.91
2023-08-17T03:12:48.330Z,20.27
2023-08-17T03:17:51.650Z,20.14
2023-08-17T03:22:54.477Z,20.09
2023-08-17T03:27:58.725Z,19.80
2023-08-17T03:33:01.807Z,20.17
2023-08-17T03:38:07.154Z,20.10
2023-08-17T03:43:11.397Z,20.09
2023-08-17T03:48:14.521Z,20.41
2023-08-17T03:53:17.323Z,19.94
2023-08-17T03:58:21.487Z,20.06
2023-08-17T04:03:24.393Z,20.39
2023-08-17T04:08:27.229Z,20.62
2023-08-17T04:13:31.516Z,20.54
2023-08-17T04:18:34.321Z,20.26
2023-08-17T04:23:37.184Z,20.37
2023-08-17T04:28:41.313Z,20.10
2023-08-17T04:33:44.275Z,20.29
2023-08-17T04:38:47.569Z,20.45
2023-08-17T04:43:51.842Z,20.24
2023-08-17T04:48:54.801Z,20.27
2023-08-17T04:53:57.914Z,20.36
2023-08-17T04:59:03.053Z,20.56
2023-08-17T05:04:06.786Z,20.36
2023-08-17T05:09:09.700Z,20.42
2023-08-17T05:14:14.108Z,19.86
2023-08-17T05:19:16.986Z,19.95
2023-08-17T05:24:21.546Z,20.00
2023-08-17T05:29:25.862Z,20.02
2023-08-17T05:34:28.660Z,20.16
2023-08-17T05:39:33.553Z,20.31
2023-08-17T05:44:39.277Z,19.97
2023-08-17T05:49:42.121Z,20.21
2023-08-17T05:54:44.919Z,19.88
2023-08-17T05:59:49.045Z,19.91
2023-08-17T06:04:51.964Z,19.69
2023-08-17T06:09:54.730Z,19.81
2023-08-17T06:14:58.948Z,19.61
2023-08-17T06:20:01.853Z,19.55
2023-08-17T06:25:06.978Z,19.50
2023-08-17T06:30:13.032Z,19.76
2023-08-17T06:35:15.904Z,19.78
2023-08-17T06:40:18.683Z,20.11
2023-08-17T06:45:23.787Z,19.63
2023-08-17T06:50:27.904Z,19.43
2023-08-17T06:55:30.928Z,19.84
2023-08-17T07:00:36.409Z,19.58
2023-08-17T07:05:39.241Z,19.46
2023-08-17T07:10:42.005Z,19.80
2023-08-17T07:15:46.137Z,20.08
2023-08-17T07:20:50.361Z,19.73
2023-08-17T07:25:53.160Z,19.66
2023-08-17T07:30:57.266Z,19.91
2023-08-17T07:36:00.284Z,19.94
2023-08-17T07:41:03.207Z,18.90
2023-08-17T07:46:07.463Z,18.91
2023-08-17T07:51:10.371Z,19.62
2023-08-17T07:56:13.200Z,19.28
2023-08-17T08:01:17.341Z,19.16
2023-08-17T08:06:21.571Z,19.35
2023-08-17T08:11:24.493Z,19.54
2023-08-17T08:16:30.567Z,20.37
2023-08-17T08:21:33.391Z,20.50
2023-08-17T08:26:36.199Z,20.05
2023-08-17T08:31:40.320Z,20.11
2023-08-17T08:36:43.148Z,20.38
2023-08-17T08:41:45.973Z,19.36
2023-08-17T08:46:50.868Z,20.33
2023-08-17T08:51:54.063Z,19.39
2023-08-17T08:57:01.345Z,19.38
2023-08-17T09:02:05.897Z,19.51
2023-08-17T09:07:09.760Z,19.60
2023-08-17T09:12:12.869Z,19.63
2023-08-17T09:17:25.182Z,20.21
2023-08-17T09:22:39.917Z,20.08
2023-08-17T09:27:42.878Z,20.09
2023-08-17T09:32:50.617Z,20.36
2023-08-17T09:37:53.986Z,20.24
2023-08-17T09:42:56.820Z,20.71
2023-08-17T09:48:03.692Z,20.88
2023-08-17T09:53:07.204Z,20.67
2023-08-17T09:58:10.186Z,20.50
2023-08-17T10:03:16.314Z,20.54
2023-08-17T10:08:22.633Z,20.31
2023-08-17T10:13:33.613Z,20.26
2023-08-17T10:18:44.649Z,20.24
2023-08-17T10:23:48.220Z,19.81
2023-08-17T10:28:52.349Z,19.90
2023-08-17T10:33:57.167Z,20.69
2023-08-17T10:39:28.578Z,20.61
2023-08-17T10:44:41.306Z,20.82
2023-08-17T10:49:45.469Z,21.04
2023-08-17T10:54:49.922Z,21.29
2023-08-17T11:00:11.902Z,20.84
2023-08-17T11:05:18.345Z,21.09
2023-08-17T11:10:31.530Z,20.77
2023-08-17T11:15:43.583Z,20.24
2023-08-17T11:20:49.696Z,20.50
2023-08-17T11:25:54.686Z,19.54
2023-08-17T11:31:01.550Z,19.06
2023-08-17T11:36:07.585Z,18.64
2023-08-17T11:41:11.151Z,19.34
2023-08-17T11:46:22.767Z,19.72
2023-08-17T11:51:32.533Z,20.00
2023-08-17T11:56:35.653Z,20.39
2023-08-17T12:01:38.553Z,20.63
2023-08-17T12:06:46.644Z,20.15
2023-08-17T12:11:49.250Z,19.95
2023-08-17T12:16:52.042Z,20.45
2023-08-17T12:21:56.212Z,19.86
2023-08-17T12:26:59.888Z,20.00
2023-08-17T12:32:03.613Z,20.76
2023-08-17T12:37:10.066Z,21.69
2023-08-17T12:42:12.851Z,21.11
2023-08-17T12:47:15.637Z,20.84
2023-08-17T12:52:19.772Z,20.39
2023-08-17T12:57:22.660Z,20.12
2023-08-17T13:02:26.234Z,19.77
2023-08-17T13:07:30.656Z,19.84
2023-08-17T13:12:33.438Z,19.91
2023-08-17T13:17:36.338Z,19.91
2023-08-17T13:22:40.462Z,19.65
2023-08-17T13:27:43.343Z,18.79
2023-08-17T13:32:47.007Z,18.99
2023-08-17T13:37:54.956Z,19.20
2023-08-17T13:42:58.950Z,19.37
2023-08-17T13:48:01.808Z,19.52
2023-08-17T13:53:06.254Z,20.45
2023-08-17T13:58:11.185Z,21.03
2023-08-17T14:03:14.211Z,21.22
2023-08-17T14:08:18.480Z,21.19
2023-08-17T14:13:21.235Z,20.85
2023-08-17T14:18:24.261Z,20.25
2023-08-17T14:23:28.446Z,21.04
2023-08-17T14:28:31.335Z,20.09
2023-08-17T14:33:34.180Z,19.94
2023-08-17T14:38:38.397Z,20.30
2023-08-17T14:43:41.413Z,20.34
2023-08-17T14:48:44.272Z,20.93
2023-08-17T14:53:48.427Z,20.42
2023-08-17T14:58:51.299Z,20.46
2023-08-17T15:03:54.107Z,20.43
2023-08-17T15:08:58.276Z,20.51
2023-08-17T15:14:01.043Z,20.04
2023-08-17T15:19:04.351Z,20.24
2023-08-17T15:24:08.836Z,20.19
2023-08-17T15:29:11.593Z,20.29
2023-08-17T15:34:14.402Z,20.30
2023-08-17T15:39:18.666Z,20.22
2023-08-17T15:44:21.519Z,20.02
2023-08-17T15:49:24.320Z,20.38
2023-08-17T15:54:35.942Z,20.29
2023-08-17T15:59:40.252Z,20.11
2023-08-17T16:04:43.215Z,21.01
2023-08-17T16:09:47.418Z,20.69
2023-08-17T16:14:50.202Z,20.34
2023-08-17T16:19:52.979Z,20.09
2023-08-17T16:24:57.143Z,20.08
2023-08-17T16:29:59.935Z,20.46
2023-08-17T16:35:02.767Z,20.43
2023-08-17T16:40:09.775Z,20.30
2023-08-17T16:45:15.989Z,20.42
2023-08-17T16:50:19.010Z,20.59
2023-08-17T16:55:23.262Z,20.29
2023-08-17T17:00:26.290Z,20.27
2023-08-17T17:05:29.101Z,20.34
2023-08-17T17:10:33.347Z,20.56
2023-08-17T17:15:36.209Z,20.11
2023-08-17T17:20:39.046Z,20.05
2023-08-17T17:25:43.232Z,20.25
2023-08-17T17:30:46.450Z,20.25
2023-08-17T17:35:49.276Z,20.06
2023-08-17T17:40:53.596Z,20.20
2023-08-17T17:45:56.369Z,20.22
2023-08-17T17:50:59.130Z,19.83
2023-08-17T17:56:03.350Z,20.09
2023-08-17T18:01:06.569Z,20.02
2023-08-17T18:06:09.539Z,20.21
2023-08-17T18:11:13.711Z,20.22
2023-08-17T18:16:16.520Z,20.25
2023-08-17T18:21:19.347Z,20.01
2023-08-17T18:26:23.547Z,20.34
2023-08-17T18:31:26.519Z,20.21
2023-08-17T18:36:29.310Z,20.01
2023-08-17T18:41:33.607Z,19.88
2023-08-17T18:46:37.422Z,20.21
2023-08-17T18:51:41.800Z,20.77
2023-08-17T18:56:45.949Z,20.15
2023-08-17T19:01:48.790Z,20.48
2023-08-17T19:06:51.706Z,20.21
2023-08-17T19:11:55.881Z,20.29
2023-08-17T19:17:00.063Z,20.57
2023-08-17T19:22:02.876Z,20.52
2023-08-17T19:27:07.257Z,20.29
2023-08-17T19:32:10.101Z,20.31
2023-08-17T19:37:12.919Z,20.78
2023-08-17T19:42:17.254Z,20.82
2023-08-17T19:47:21.265Z,20.79
2023-08-17T19:52:24.164Z,20.68
2023-08-17T19:57:28.649Z,20.99
2023-08-17T20:02:32.839Z,20.95
2023-08-17T20:07:35.745Z,20.98
2023-08-17T20:12:39.872Z,20.61
2023-08-17T20:17:42.676Z,21.23
2023-08-17T20:22:45.518Z,20.81
2023-08-17T20:27:50.335Z,20.83
2023-08-17T20:32:53.225Z,20.93
2023-08-17T20:37:56.051Z,20.71
2023-08-17T20:43:00.225Z,20.89
2023-08-17T20:48:03.049Z,20.94
2023-08-17T20:53:06.753Z,20.67
2023-08-17T20:58:11.092Z,20.68
2023-08-17T21:03:13.986Z,21.16
2023-08-17T21:08:16.935Z,20.55
2023-08-17T21:13:21.503Z,21.18
2023-08-17T21:18:24.274Z,20.70
2023-08-17T21:23:27.539Z,20.81
2023-08-17T21:28:31.648Z,20.66
2023-08-17T21:33:34.618Z,20.85
2023-08-17T21:38:37.414Z,20.58
2023-08-17T21:43:41.536Z,20.55
2023-08-17T21:48:44.342Z,20.67
2023-08-17T21:53:47.373Z,21.06
2023-08-17T21:58:51.486Z,20.67
2023-08-17T22:03:54.303Z,20.70
2023-08-17T22:08:57.124Z,20.86
2023-08-17T22:14:01.259Z,20.76
2023-08-17T22:19:04.126Z,20.59
2023-08-17T22:24:07.743Z,20.97
2023-08-17T22:29:12.460Z,20.69
2023-08-17T22:34:15.287Z,20.77
2023-08-17T22:39:18.067Z,21.01
2023-08-17T22:44:22.199Z,21.04
2023-08-17T22:49:24.968Z,20.63
2023-08-17T22:54:27.769Z,20.66
2023-08-17T22:59:31.960Z,20.75
2023-08-17T23:04:34.789Z,21.13
2023-08-17T23:09:37.580Z,20.99
2023-08-17T23:14:41.906Z,20.80
2023-08-17T23:19:44.700Z,21.35
2023-08-17T23:24:47.520Z,21.30
2023-08-17T23:29:51.728Z,20.93
2023-08-17T23:34:54.609Z,21.42
2023-08-17T23:39:57.391Z,21.70
2023-08-17T23:45:01.542Z,21.15
2023-08-17T23:50:06.022Z,21.40
2023-08-17T23:55:08.995Z,21.31
